Shady Grove, Texas
Current Conditions -  °F | °C
As of 5:53 AM on Saturday 01 Nov 2014 (Local Time) from KLFK Reporting Station
Clear Clear  
Wind Chill: 43°   Ceiling: Unl
Heat Index: 45°   Visibility: 10mi
Dew Point: 33°   Wind: 5mph
Humidity: 63%   Direction: 30°NNE
Pressure: 30.37"   Gusts: NA
Location:  31.1753°N, 94.7371°W
Report Text: KLFK 011053Z AUTO 03004KT 10SM CLR 07/01 A3037 RMK AO2 SLP282 T00720006
Loading
Personal Weather Stations






























Interactive Weather Map
Tropical Storm Tracking
New forecast layout! Learn more

10-Day Weather Forecast

Advertisements
Track Severe Weather on mobile